sensor_id;sensor_type;location;lat;lon;timestamp;P1;durP1;ratioP1;P2;durP2;ratioP2
48743;SDS011;34538;48.836;9.174;2023-04-08T00:01:53;11.60;;;7.47;;
48743;SDS011;34538;48.836;9.174;2023-04-08T00:04:21;11.38;;;7.00;;
48743;SDS011;34538;48.836;9.174;2023-04-08T00:06:48;13.38;;;8.23;;
48743;SDS011;34538;48.836;9.174;2023-04-08T00:09:15;12.45;;;7.68;;
48743;SDS011;34538;48.836;9.174;2023-04-08T00:11:41;12.63;;;7.60;;
48743;SDS011;34538;48.836;9.174;2023-04-08T00:14:08;11.93;;;7.30;;
48743;SDS011;34538;48.836;9.174;2023-04-08T00:16:37;12.43;;;7.18;;
48743;SDS011;34538;48.836;9.174;2023-04-08T00:19:03;12.48;;;7.47;;
48743;SDS011;34538;48.836;9.174;2023-04-08T00:21:31;13.45;;;7.72;;
48743;SDS011;34538;48.836;9.174;2023-04-08T00:23:58;13.82;;;8.13;;
48743;SDS011;34538;48.836;9.174;2023-04-08T00:26:24;12.32;;;7.68;;
48743;SDS011;34538;48.836;9.174;2023-04-08T00:28:52;13.02;;;7.03;;
48743;SDS011;34538;48.836;9.174;2023-04-08T00:31:18;12.50;;;7.28;;
48743;SDS011;34538;48.836;9.174;2023-04-08T00:33:47;12.07;;;7.10;;
48743;SDS011;34538;48.836;9.174;2023-04-08T00:36:14;12.57;;;7.30;;
48743;SDS011;34538;48.836;9.174;2023-04-08T00:38:40;14.15;;;7.85;;
48743;SDS011;34538;48.836;9.174;2023-04-08T00:41:07;12.07;;;7.10;;
48743;SDS011;34538;48.836;9.174;2023-04-08T00:43:34;12.55;;;7.60;;
48743;SDS011;34538;48.836;9.174;2023-04-08T00:46:01;14.30;;;8.48;;
48743;SDS011;34538;48.836;9.174;2023-04-08T00:48:30;13.27;;;7.60;;
48743;SDS011;34538;48.836;9.174;2023-04-08T00:50:58;14.70;;;7.88;;
48743;SDS011;34538;48.836;9.174;2023-04-08T00:53:25;11.32;;;7.65;;
48743;SDS011;34538;48.836;9.174;2023-04-08T00:55:52;12.93;;;7.82;;
48743;SDS011;34538;48.836;9.174;2023-04-08T00:58:19;11.70;;;7.55;;
48743;SDS011;34538;48.836;9.174;2023-04-08T01:00:49;12.32;;;7.82;;
48743;SDS011;34538;48.836;9.174;2023-04-08T01:03:23;13.15;;;8.40;;
48743;SDS011;34538;48.836;9.174;2023-04-08T01:05:55;12.40;;;8.07;;
48743;SDS011;34538;48.836;9.174;2023-04-08T01:10:56;12.48;;;7.43;;
48743;SDS011;34538;48.836;9.174;2023-04-08T01:13:26;12.55;;;7.88;;
48743;SDS011;34538;48.836;9.174;2023-04-08T01:15:59;12.52;;;8.00;;
48743;SDS011;34538;48.836;9.174;2023-04-08T01:18:26;11.15;;;7.03;;
48743;SDS011;34538;48.836;9.174;2023-04-08T01:20:55;11.68;;;7.72;;
48743;SDS011;34538;48.836;9.174;2023-04-08T01:23:30;12.50;;;8.20;;
48743;SDS011;34538;48.836;9.174;2023-04-08T01:26:03;12.88;;;8.02;;
48743;SDS011;34538;48.836;9.174;2023-04-08T01:28:30;13.48;;;8.20;;
48743;SDS011;34538;48.836;9.174;2023-04-08T01:30:59;13.45;;;7.97;;
48743;SDS011;34538;48.836;9.174;2023-04-08T01:33:27;13.32;;;8.63;;
48743;SDS011;34538;48.836;9.174;2023-04-08T01:35:56;14.40;;;8.30;;
48743;SDS011;34538;48.836;9.174;2023-04-08T01:38:24;14.65;;;8.90;;
48743;SDS011;34538;48.836;9.174;2023-04-08T01:40:53;14.27;;;8.38;;
48743;SDS011;34538;48.836;9.174;2023-04-08T01:43:22;15.23;;;9.10;;
48743;SDS011;34538;48.836;9.174;2023-04-08T01:45:50;14.43;;;9.20;;
48743;SDS011;34538;48.836;9.174;2023-04-08T01:50:49;13.65;;;8.43;;
48743;SDS011;34538;48.836;9.174;2023-04-08T01:53:17;14.50;;;9.05;;
48743;SDS011;34538;48.836;9.174;2023-04-08T01:55:44;13.90;;;8.30;;
48743;SDS011;34538;48.836;9.174;2023-04-08T01:58:14;16.20;;;8.90;;
48743;SDS011;34538;48.836;9.174;2023-04-08T02:00:47;16.05;;;9.30;;
48743;SDS011;34538;48.836;9.174;2023-04-08T02:03:15;14.02;;;8.52;;
48743;SDS011;34538;48.836;9.174;2023-04-08T02:05:44;14.55;;;9.27;;
48743;SDS011;34538;48.836;9.174;2023-04-08T02:08:11;15.35;;;9.02;;
48743;SDS011;34538;48.836;9.174;2023-04-08T02:10:38;15.20;;;8.63;;
48743;SDS011;34538;48.836;9.174;2023-04-08T02:13:05;13.00;;;8.48;;
48743;SDS011;34538;48.836;9.174;2023-04-08T02:15:33;15.10;;;9.07;;
48743;SDS011;34538;48.836;9.174;2023-04-08T02:18:07;13.95;;;8.38;;
48743;SDS011;34538;48.836;9.174;2023-04-08T02:20:40;12.73;;;7.57;;
48743;SDS011;34538;48.836;9.174;2023-04-08T02:23:12;15.13;;;8.52;;
48743;SDS011;34538;48.836;9.174;2023-04-08T02:28:09;13.60;;;8.23;;
48743;SDS011;34538;48.836;9.174;2023-04-08T02:30:37;14.68;;;7.97;;
48743;SDS011;34538;48.836;9.174;2023-04-08T02:33:09;14.38;;;8.63;;
48743;SDS011;34538;48.836;9.174;2023-04-08T02:35:37;17.45;;;9.27;;
48743;SDS011;34538;48.836;9.174;2023-04-08T02:38:07;15.18;;;8.20;;
48743;SDS011;34538;48.836;9.174;2023-04-08T02:40:35;15.07;;;9.02;;
48743;SDS011;34538;48.836;9.174;2023-04-08T02:43:02;15.98;;;9.38;;
48743;SDS011;34538;48.836;9.174;2023-04-08T02:45:29;16.38;;;9.48;;
48743;SDS011;34538;48.836;9.174;2023-04-08T02:48:00;17.85;;;9.15;;
48743;SDS011;34538;48.836;9.174;2023-04-08T02:50:28;16.10;;;9.73;;
48743;SDS011;34538;48.836;9.174;2023-04-08T02:52:55;16.70;;;8.77;;
48743;SDS011;34538;48.836;9.174;2023-04-08T02:55:22;17.17;;;9.35;;
48743;SDS011;34538;48.836;9.174;2023-04-08T02:57:49;16.40;;;9.43;;
48743;SDS011;34538;48.836;9.174;2023-04-08T03:00:16;17.23;;;10.05;;
48743;SDS011;34538;48.836;9.174;2023-04-08T03:02:43;16.88;;;9.75;;
48743;SDS011;34538;48.836;9.174;2023-04-08T03:05:10;18.75;;;10.48;;
48743;SDS011;34538;48.836;9.174;2023-04-08T03:07:38;20.52;;;10.65;;
48743;SDS011;34538;48.836;9.174;2023-04-08T03:10:05;19.05;;;10.32;;
48743;SDS011;34538;48.836;9.174;2023-04-08T03:12:33;20.13;;;10.35;;
48743;SDS011;34538;48.836;9.174;2023-04-08T03:15:00;17.90;;;10.27;;
48743;SDS011;34538;48.836;9.174;2023-04-08T03:17:27;20.15;;;10.70;;
48743;SDS011;34538;48.836;9.174;2023-04-08T03:19:56;20.73;;;10.10;;
48743;SDS011;34538;48.836;9.174;2023-04-08T03:22:23;21.30;;;11.15;;
48743;SDS011;34538;48.836;9.174;2023-04-08T03:24:51;19.95;;;9.60;;
48743;SDS011;34538;48.836;9.174;2023-04-08T03:27:18;20.52;;;10.75;;
48743;SDS011;34538;48.836;9.174;2023-04-08T03:29:45;20.42;;;10.68;;
48743;SDS011;34538;48.836;9.174;2023-04-08T03:32:12;22.40;;;10.57;;
48743;SDS011;34538;48.836;9.174;2023-04-08T03:34:39;22.90;;;10.05;;
48743;SDS011;34538;48.836;9.174;2023-04-08T03:37:06;18.73;;;10.40;;
48743;SDS011;34538;48.836;9.174;2023-04-08T03:39:33;20.27;;;10.65;;
48743;SDS011;34538;48.836;9.174;2023-04-08T03:42:01;22.63;;;10.82;;
48743;SDS011;34538;48.836;9.174;2023-04-08T03:44:28;20.35;;;9.90;;
48743;SDS011;34538;48.836;9.174;2023-04-08T03:46:55;21.95;;;11.13;;
48743;SDS011;34538;48.836;9.174;2023-04-08T03:49:21;18.05;;;10.05;;
48743;SDS011;34538;48.836;9.174;2023-04-08T03:51:48;20.73;;;11.60;;
48743;SDS011;34538;48.836;9.174;2023-04-08T03:54:15;22.48;;;10.77;;
48743;SDS011;34538;48.836;9.174;2023-04-08T03:56:42;20.10;;;11.05;;
48743;SDS011;34538;48.836;9.174;2023-04-08T03:59:10;21.27;;;10.55;;
48743;SDS011;34538;48.836;9.174;2023-04-08T04:01:37;18.40;;;10.15;;
48743;SDS011;34538;48.836;9.174;2023-04-08T04:04:04;21.50;;;11.13;;
48743;SDS011;34538;48.836;9.174;2023-04-08T04:06:31;22.38;;;10.15;;
48743;SDS011;34538;48.836;9.174;2023-04-08T04:08:57;20.38;;;11.13;;
48743;SDS011;34538;48.836;9.174;2023-04-08T04:11:24;17.27;;;9.82;;
48743;SDS011;34538;48.836;9.174;2023-04-08T04:13:51;22.17;;;11.13;;
48743;SDS011;34538;48.836;9.174;2023-04-08T04:16:19;18.63;;;10.07;;
48743;SDS011;34538;48.836;9.174;2023-04-08T04:18:46;23.38;;;11.13;;
48743;SDS011;34538;48.836;9.174;2023-04-08T04:21:13;20.63;;;11.55;;
48743;SDS011;34538;48.836;9.174;2023-04-08T04:23:40;20.08;;;11.05;;
48743;SDS011;34538;48.836;9.174;2023-04-08T04:26:07;21.73;;;10.77;;
48743;SDS011;34538;48.836;9.174;2023-04-08T04:28:34;20.52;;;11.40;;
48743;SDS011;34538;48.836;9.174;2023-04-08T04:31:01;23.58;;;12.48;;
48743;SDS011;34538;48.836;9.174;2023-04-08T04:33:29;20.73;;;10.80;;
48743;SDS011;34538;48.836;9.174;2023-04-08T04:35:56;22.42;;;11.43;;
48743;SDS011;34538;48.836;9.174;2023-04-08T04:38:23;21.08;;;11.02;;
48743;SDS011;34538;48.836;9.174;2023-04-08T04:40:51;25.17;;;12.15;;
48743;SDS011;34538;48.836;9.174;2023-04-08T04:43:18;22.50;;;11.57;;
48743;SDS011;34538;48.836;9.174;2023-04-08T04:45:44;25.85;;;11.45;;
48743;SDS011;34538;48.836;9.174;2023-04-08T04:48:11;29.38;;;11.82;;
48743;SDS011;34538;48.836;9.174;2023-04-08T04:50:39;24.48;;;11.98;;
48743;SDS011;34538;48.836;9.174;2023-04-08T04:53:06;25.88;;;12.80;;
48743;SDS011;34538;48.836;9.174;2023-04-08T04:55:33;23.88;;;12.50;;
48743;SDS011;34538;48.836;9.174;2023-04-08T04:58:00;25.33;;;13.23;;
48743;SDS011;34538;48.836;9.174;2023-04-08T05:00:27;25.85;;;13.80;;
48743;SDS011;34538;48.836;9.174;2023-04-08T05:02:54;27.70;;;13.82;;
48743;SDS011;34538;48.836;9.174;2023-04-08T05:05:20;26.52;;;13.40;;
48743;SDS011;34538;48.836;9.174;2023-04-08T05:07:48;26.48;;;12.60;;
48743;SDS011;34538;48.836;9.174;2023-04-08T05:10:15;27.63;;;12.50;;
48743;SDS011;34538;48.836;9.174;2023-04-08T05:12:42;24.63;;;11.77;;
48743;SDS011;34538;48.836;9.174;2023-04-08T05:15:09;23.15;;;12.15;;
48743;SDS011;34538;48.836;9.174;2023-04-08T05:17:36;23.67;;;13.63;;
48743;SDS011;34538;48.836;9.174;2023-04-08T05:20:03;25.63;;;13.13;;
48743;SDS011;34538;48.836;9.174;2023-04-08T05:22:31;23.88;;;12.90;;
48743;SDS011;34538;48.836;9.174;2023-04-08T05:24:59;29.83;;;14.10;;
48743;SDS011;34538;48.836;9.174;2023-04-08T05:27:26;38.28;;;19.15;;
48743;SDS011;34538;48.836;9.174;2023-04-08T05:29:53;46.78;;;22.38;;
48743;SDS011;34538;48.836;9.174;2023-04-08T05:32:20;34.92;;;16.80;;
48743;SDS011;34538;48.836;9.174;2023-04-08T05:34:47;34.67;;;17.08;;
48743;SDS011;34538;48.836;9.174;2023-04-08T05:37:13;32.67;;;15.75;;
48743;SDS011;34538;48.836;9.174;2023-04-08T05:39:40;28.77;;;14.30;;
48743;SDS011;34538;48.836;9.174;2023-04-08T05:42:08;29.40;;;14.13;;
48743;SDS011;34538;48.836;9.174;2023-04-08T05:44:36;25.42;;;13.18;;
48743;SDS011;34538;48.836;9.174;2023-04-08T05:47:05;28.42;;;13.57;;
48743;SDS011;34538;48.836;9.174;2023-04-08T05:49:32;28.88;;;13.50;;
48743;SDS011;34538;48.836;9.174;2023-04-08T05:51:59;25.70;;;13.90;;
48743;SDS011;34538;48.836;9.174;2023-04-08T05:54:27;25.67;;;13.52;;
48743;SDS011;34538;48.836;9.174;2023-04-08T05:56:54;30.42;;;15.02;;
48743;SDS011;34538;48.836;9.174;2023-04-08T05:59:22;26.63;;;13.27;;
48743;SDS011;34538;48.836;9.174;2023-04-08T06:01:49;27.50;;;13.45;;
48743;SDS011;34538;48.836;9.174;2023-04-08T06:04:16;26.30;;;13.80;;
48743;SDS011;34538;48.836;9.174;2023-04-08T06:06:43;25.80;;;13.70;;
48743;SDS011;34538;48.836;9.174;2023-04-08T06:09:10;24.40;;;13.18;;
48743;SDS011;34538;48.836;9.174;2023-04-08T06:11:37;21.48;;;13.15;;
48743;SDS011;34538;48.836;9.174;2023-04-08T06:14:04;22.13;;;12.35;;
48743;SDS011;34538;48.836;9.174;2023-04-08T06:16:33;38.85;;;23.25;;
48743;SDS011;34538;48.836;9.174;2023-04-08T06:19:00;23.10;;;14.48;;
48743;SDS011;34538;48.836;9.174;2023-04-08T06:21:27;26.38;;;14.20;;
48743;SDS011;34538;48.836;9.174;2023-04-08T06:23:54;24.25;;;13.02;;
48743;SDS011;34538;48.836;9.174;2023-04-08T06:26:20;21.67;;;13.18;;
48743;SDS011;34538;48.836;9.174;2023-04-08T06:28:47;22.30;;;12.80;;
48743;SDS011;34538;48.836;9.174;2023-04-08T06:31:14;23.58;;;13.23;;
48743;SDS011;34538;48.836;9.174;2023-04-08T06:33:42;22.50;;;12.18;;
48743;SDS011;34538;48.836;9.174;2023-04-08T06:36:09;21.52;;;11.93;;
48743;SDS011;34538;48.836;9.174;2023-04-08T06:38:37;27.73;;;15.20;;
48743;SDS011;34538;48.836;9.174;2023-04-08T06:41:04;35.30;;;17.80;;
48743;SDS011;34538;48.836;9.174;2023-04-08T06:43:32;34.80;;;18.45;;
48743;SDS011;34538;48.836;9.174;2023-04-08T06:45:59;23.20;;;12.88;;
48743;SDS011;34538;48.836;9.174;2023-04-08T06:48:26;21.70;;;12.02;;
48743;SDS011;34538;48.836;9.174;2023-04-08T06:50:55;18.73;;;11.30;;
48743;SDS011;34538;48.836;9.174;2023-04-08T06:53:23;22.70;;;11.55;;
48743;SDS011;34538;48.836;9.174;2023-04-08T06:55:50;21.08;;;11.68;;
48743;SDS011;34538;48.836;9.174;2023-04-08T06:58:17;28.30;;;15.43;;
48743;SDS011;34538;48.836;9.174;2023-04-08T07:00:44;23.92;;;13.40;;
48743;SDS011;34538;48.836;9.174;2023-04-08T07:03:11;23.33;;;12.95;;
48743;SDS011;34538;48.836;9.174;2023-04-08T07:05:38;19.67;;;11.60;;
48743;SDS011;34538;48.836;9.174;2023-04-08T07:08:07;21.17;;;11.73;;
48743;SDS011;34538;48.836;9.174;2023-04-08T07:10:34;28.13;;;15.20;;
48743;SDS011;34538;48.836;9.174;2023-04-08T07:13:01;27.25;;;14.65;;
48743;SDS011;34538;48.836;9.174;2023-04-08T07:15:28;21.08;;;11.70;;
48743;SDS011;34538;48.836;9.174;2023-04-08T07:17:55;21.20;;;10.95;;
48743;SDS011;34538;48.836;9.174;2023-04-08T07:20:22;24.33;;;12.27;;
48743;SDS011;34538;48.836;9.174;2023-04-08T07:22:50;30.08;;;14.93;;
48743;SDS011;34538;48.836;9.174;2023-04-08T07:25:18;19.23;;;11.73;;
48743;SDS011;34538;48.836;9.174;2023-04-08T07:27:45;16.10;;;9.55;;
48743;SDS011;34538;48.836;9.174;2023-04-08T07:30:12;15.48;;;9.68;;
48743;SDS011;34538;48.836;9.174;2023-04-08T07:32:39;19.23;;;11.60;;
48743;SDS011;34538;48.836;9.174;2023-04-08T07:35:06;15.95;;;9.55;;
48743;SDS011;34538;48.836;9.174;2023-04-08T07:37:33;17.98;;;10.32;;
48743;SDS011;34538;48.836;9.174;2023-04-08T07:40:00;16.90;;;10.02;;
48743;SDS011;34538;48.836;9.174;2023-04-08T07:42:28;15.68;;;9.90;;
48743;SDS011;34538;48.836;9.174;2023-04-08T07:44:55;18.35;;;10.23;;
48743;SDS011;34538;48.836;9.174;2023-04-08T07:47:21;17.13;;;10.18;;
48743;SDS011;34538;48.836;9.174;2023-04-08T07:49:48;14.63;;;8.38;;
48743;SDS011;34538;48.836;9.174;2023-04-08T07:52:15;15.00;;;8.13;;
48743;SDS011;34538;48.836;9.174;2023-04-08T07:54:42;14.25;;;8.63;;
48743;SDS011;34538;48.836;9.174;2023-04-08T07:57:09;14.77;;;9.30;;
48743;SDS011;34538;48.836;9.174;2023-04-08T07:59:37;14.68;;;9.55;;
48743;SDS011;34538;48.836;9.174;2023-04-08T08:02:04;16.38;;;9.63;;
48743;SDS011;34538;48.836;9.174;2023-04-08T08:04:31;14.40;;;8.75;;
48743;SDS011;34538;48.836;9.174;2023-04-08T08:06:58;14.75;;;9.35;;
48743;SDS011;34538;48.836;9.174;2023-04-08T08:09:25;14.38;;;8.65;;
48743;SDS011;34538;48.836;9.174;2023-04-08T08:11:52;13.18;;;8.35;;
48743;SDS011;34538;48.836;9.174;2023-04-08T08:14:18;13.73;;;8.35;;
48743;SDS011;34538;48.836;9.174;2023-04-08T08:16:47;12.32;;;8.13;;
48743;SDS011;34538;48.836;9.174;2023-04-08T08:19:14;14.38;;;8.48;;
48743;SDS011;34538;48.836;9.174;2023-04-08T08:21:41;13.35;;;8.43;;
48743;SDS011;34538;48.836;9.174;2023-04-08T08:24:08;14.48;;;9.48;;
48743;SDS011;34538;48.836;9.174;2023-04-08T08:26:35;15.00;;;8.70;;
48743;SDS011;34538;48.836;9.174;2023-04-08T08:29:02;13.25;;;8.65;;
48743;SDS011;34538;48.836;9.174;2023-04-08T08:31:30;12.93;;;8.65;;
48743;SDS011;34538;48.836;9.174;2023-04-08T08:33:58;13.60;;;8.60;;
48743;SDS011;34538;48.836;9.174;2023-04-08T08:36:25;11.90;;;7.88;;
48743;SDS011;34538;48.836;9.174;2023-04-08T08:38:52;13.90;;;8.23;;
48743;SDS011;34538;48.836;9.174;2023-04-08T08:41:19;12.90;;;8.32;;
48743;SDS011;34538;48.836;9.174;2023-04-08T08:43:46;15.15;;;8.95;;
48743;SDS011;34538;48.836;9.174;2023-04-08T08:46:14;13.43;;;8.93;;
48743;SDS011;34538;48.836;9.174;2023-04-08T08:48:43;14.02;;;8.52;;
48743;SDS011;34538;48.836;9.174;2023-04-08T08:51:11;13.65;;;8.27;;
48743;SDS011;34538;48.836;9.174;2023-04-08T08:53:38;12.77;;;8.55;;
48743;SDS011;34538;48.836;9.174;2023-04-08T08:56:09;14.52;;;8.45;;
48743;SDS011;34538;48.836;9.174;2023-04-08T08:58:36;13.48;;;8.93;;
48743;SDS011;34538;48.836;9.174;2023-04-08T09:04:05;12.70;;;8.13;;
48743;SDS011;34538;48.836;9.174;2023-04-08T09:06:37;14.25;;;8.35;;
48743;SDS011;34538;48.836;9.174;2023-04-08T09:09:05;12.88;;;8.45;;
48743;SDS011;34538;48.836;9.174;2023-04-08T09:11:34;12.98;;;8.02;;
48743;SDS011;34538;48.836;9.174;2023-04-08T09:14:02;12.18;;;8.50;;
48743;SDS011;34538;48.836;9.174;2023-04-08T09:16:30;13.90;;;9.18;;
48743;SDS011;34538;48.836;9.174;2023-04-08T09:19:06;14.07;;;8.93;;
48743;SDS011;34538;48.836;9.174;2023-04-08T09:21:34;11.98;;;8.07;;
48743;SDS011;34538;48.836;9.174;2023-04-08T09:24:03;14.27;;;8.77;;
48743;SDS011;34538;48.836;9.174;2023-04-08T09:26:30;13.02;;;8.60;;
48743;SDS011;34538;48.836;9.174;2023-04-08T09:28:57;13.15;;;7.88;;
48743;SDS011;34538;48.836;9.174;2023-04-08T09:31:25;11.30;;;8.32;;
48743;SDS011;34538;48.836;9.174;2023-04-08T09:33:54;14.07;;;8.65;;
48743;SDS011;34538;48.836;9.174;2023-04-08T09:36:21;12.38;;;8.15;;
48743;SDS011;34538;48.836;9.174;2023-04-08T09:38:48;12.18;;;8.65;;
48743;SDS011;34538;48.836;9.174;2023-04-08T09:41:17;13.23;;;8.82;;
48743;SDS011;34538;48.836;9.174;2023-04-08T09:43:47;13.18;;;8.63;;
48743;SDS011;34538;48.836;9.174;2023-04-08T09:46:16;13.80;;;8.88;;
48743;SDS011;34538;48.836;9.174;2023-04-08T09:48:45;12.77;;;8.52;;
48743;SDS011;34538;48.836;9.174;2023-04-08T09:51:16;14.23;;;9.25;;
48743;SDS011;34538;48.836;9.174;2023-04-08T09:53:46;13.40;;;8.95;;
48743;SDS011;34538;48.836;9.174;2023-04-08T09:56:16;13.27;;;8.45;;
48743;SDS011;34538;48.836;9.174;2023-04-08T09:58:48;14.07;;;8.60;;
48743;SDS011;34538;48.836;9.174;2023-04-08T10:01:21;16.17;;;9.93;;
48743;SDS011;34538;48.836;9.174;2023-04-08T10:03:53;13.60;;;9.05;;
48743;SDS011;34538;48.836;9.174;2023-04-08T10:06:23;15.93;;;9.82;;
48743;SDS011;34538;48.836;9.174;2023-04-08T10:08:55;14.07;;;9.40;;
48743;SDS011;34538;48.836;9.174;2023-04-08T10:11:24;14.52;;;9.40;;
48743;SDS011;34538;48.836;9.174;2023-04-08T10:13:51;13.40;;;8.80;;
48743;SDS011;34538;48.836;9.174;2023-04-08T10:16:19;12.50;;;8.38;;
48743;SDS011;34538;48.836;9.174;2023-04-08T10:18:47;11.30;;;7.95;;
48743;SDS011;34538;48.836;9.174;2023-04-08T10:21:32;14.32;;;9.88;;
48743;SDS011;34538;48.836;9.174;2023-04-08T10:24:01;14.13;;;8.73;;
48743;SDS011;34538;48.836;9.174;2023-04-08T10:26:33;14.68;;;10.05;;
48743;SDS011;34538;48.836;9.174;2023-04-08T10:31:56;13.82;;;8.60;;
48743;SDS011;34538;48.836;9.174;2023-04-08T10:34:24;12.88;;;8.13;;
48743;SDS011;34538;48.836;9.174;2023-04-08T10:36:52;13.70;;;9.15;;
48743;SDS011;34538;48.836;9.174;2023-04-08T10:39:20;17.58;;;10.18;;
48743;SDS011;34538;48.836;9.174;2023-04-08T10:41:49;12.90;;;8.27;;
48743;SDS011;34538;48.836;9.174;2023-04-08T10:44:16;16.25;;;8.68;;
48743;SDS011;34538;48.836;9.174;2023-04-08T10:46:44;12.60;;;7.43;;
48743;SDS011;34538;48.836;9.174;2023-04-08T10:49:11;12.65;;;8.13;;
48743;SDS011;34538;48.836;9.174;2023-04-08T10:51:38;13.85;;;8.18;;
48743;SDS011;34538;48.836;9.174;2023-04-08T10:54:05;14.25;;;8.43;;
48743;SDS011;34538;48.836;9.174;2023-04-08T10:56:33;11.82;;;8.15;;
48743;SDS011;34538;48.836;9.174;2023-04-08T10:59:02;12.27;;;7.47;;
48743;SDS011;34538;48.836;9.174;2023-04-08T11:01:36;12.75;;;7.95;;
48743;SDS011;34538;48.836;9.174;2023-04-08T11:04:06;13.02;;;7.90;;
48743;SDS011;34538;48.836;9.174;2023-04-08T11:06:37;11.30;;;7.90;;
48743;SDS011;34538;48.836;9.174;2023-04-08T11:09:04;11.35;;;7.70;;
48743;SDS011;34538;48.836;9.174;2023-04-08T11:11:31;11.18;;;7.40;;
48743;SDS011;34538;48.836;9.174;2023-04-08T11:13:58;11.63;;;7.07;;
48743;SDS011;34538;48.836;9.174;2023-04-08T11:16:27;12.70;;;7.15;;
48743;SDS011;34538;48.836;9.174;2023-04-08T11:18:54;13.50;;;8.05;;
48743;SDS011;34538;48.836;9.174;2023-04-08T11:21:22;12.90;;;8.10;;
48743;SDS011;34538;48.836;9.174;2023-04-08T11:23:49;11.75;;;7.30;;
48743;SDS011;34538;48.836;9.174;2023-04-08T11:26:17;10.38;;;7.35;;
48743;SDS011;34538;48.836;9.174;2023-04-08T11:28:45;13.18;;;7.22;;
48743;SDS011;34538;48.836;9.174;2023-04-08T11:31:13;12.27;;;7.53;;
48743;SDS011;34538;48.836;9.174;2023-04-08T11:33:45;11.25;;;8.05;;
48743;SDS011;34538;48.836;9.174;2023-04-08T11:36:13;11.07;;;7.90;;
48743;SDS011;34538;48.836;9.174;2023-04-08T11:38:40;11.20;;;8.07;;
48743;SDS011;34538;48.836;9.174;2023-04-08T11:41:07;12.90;;;8.15;;
48743;SDS011;34538;48.836;9.174;2023-04-08T11:43:35;12.90;;;8.23;;
48743;SDS011;34538;48.836;9.174;2023-04-08T11:46:09;14.00;;;7.75;;
48743;SDS011;34538;48.836;9.174;2023-04-08T11:48:36;11.32;;;7.40;;
48743;SDS011;34538;48.836;9.174;2023-04-08T11:51:05;11.20;;;7.65;;
48743;SDS011;34538;48.836;9.174;2023-04-08T11:53:33;12.00;;;7.43;;
48743;SDS011;34538;48.836;9.174;2023-04-08T11:56:14;10.70;;;7.28;;
48743;SDS011;34538;48.836;9.174;2023-04-08T11:58:42;11.85;;;7.68;;
48743;SDS011;34538;48.836;9.174;2023-04-08T12:01:09;12.25;;;7.78;;
48743;SDS011;34538;48.836;9.174;2023-04-08T12:03:36;11.05;;;7.45;;
48743;SDS011;34538;48.836;9.174;2023-04-08T12:06:04;11.50;;;7.95;;
48743;SDS011;34538;48.836;9.174;2023-04-08T12:08:33;18.10;;;11.43;;
48743;SDS011;34538;48.836;9.174;2023-04-08T12:10:59;16.98;;;10.18;;
48743;SDS011;34538;48.836;9.174;2023-04-08T12:13:26;12.52;;;8.93;;
48743;SDS011;34538;48.836;9.174;2023-04-08T12:15:53;12.45;;;8.18;;
48743;SDS011;34538;48.836;9.174;2023-04-08T12:18:20;11.52;;;7.80;;
48743;SDS011;34538;48.836;9.174;2023-04-08T12:20:47;12.35;;;8.98;;
48743;SDS011;34538;48.836;9.174;2023-04-08T12:23:15;13.30;;;8.38;;
48743;SDS011;34538;48.836;9.174;2023-04-08T12:25:42;17.00;;;9.18;;
48743;SDS011;34538;48.836;9.174;2023-04-08T12:28:09;11.73;;;8.32;;
48743;SDS011;34538;48.836;9.174;2023-04-08T12:30:36;14.27;;;7.68;;
48743;SDS011;34538;48.836;9.174;2023-04-08T12:33:03;10.60;;;7.38;;
48743;SDS011;34538;48.836;9.174;2023-04-08T12:35:29;11.27;;;7.55;;
48743;SDS011;34538;48.836;9.174;2023-04-08T12:37:56;11.73;;;7.68;;
48743;SDS011;34538;48.836;9.174;2023-04-08T12:40:24;11.45;;;6.97;;
48743;SDS011;34538;48.836;9.174;2023-04-08T12:42:51;10.50;;;6.82;;
48743;SDS011;34538;48.836;9.174;2023-04-08T12:45:18;11.82;;;8.15;;
48743;SDS011;34538;48.836;9.174;2023-04-08T12:47:45;11.82;;;8.00;;
48743;SDS011;34538;48.836;9.174;2023-04-08T12:50:12;9.52;;;6.85;;
48743;SDS011;34538;48.836;9.174;2023-04-08T12:52:39;11.65;;;7.88;;
48743;SDS011;34538;48.836;9.174;2023-04-08T12:55:06;13.20;;;7.80;;
48743;SDS011;34538;48.836;9.174;2023-04-08T12:57:35;16.23;;;9.23;;
48743;SDS011;34538;48.836;9.174;2023-04-08T13:00:02;12.77;;;7.95;;
48743;SDS011;34538;48.836;9.174;2023-04-08T13:02:29;12.93;;;8.75;;
48743;SDS011;34538;48.836;9.174;2023-04-08T13:04:56;11.35;;;8.07;;
48743;SDS011;34538;48.836;9.174;2023-04-08T13:07:23;10.85;;;7.72;;
48743;SDS011;34538;48.836;9.174;2023-04-08T13:09:50;11.55;;;8.05;;
48743;SDS011;34538;48.836;9.174;2023-04-08T13:12:16;10.75;;;7.60;;
48743;SDS011;34538;48.836;9.174;2023-04-08T13:14:45;10.90;;;7.18;;
48743;SDS011;34538;48.836;9.174;2023-04-08T13:17:11;12.35;;;7.65;;
48743;SDS011;34538;48.836;9.174;2023-04-08T13:19:38;11.45;;;7.80;;
48743;SDS011;34538;48.836;9.174;2023-04-08T13:22:05;11.85;;;7.85;;
48743;SDS011;34538;48.836;9.174;2023-04-08T13:24:32;11.10;;;7.82;;
48743;SDS011;34538;48.836;9.174;2023-04-08T13:26:59;13.27;;;7.85;;
48743;SDS011;34538;48.836;9.174;2023-04-08T13:29:26;11.80;;;8.10;;
48743;SDS011;34538;48.836;9.174;2023-04-08T13:31:54;15.43;;;8.63;;
48743;SDS011;34538;48.836;9.174;2023-04-08T13:34:21;13.27;;;7.80;;
48743;SDS011;34538;48.836;9.174;2023-04-08T13:36:48;13.32;;;7.95;;
48743;SDS011;34538;48.836;9.174;2023-04-08T13:39:15;13.55;;;9.50;;
48743;SDS011;34538;48.836;9.174;2023-04-08T13:41:41;12.40;;;8.80;;
48743;SDS011;34538;48.836;9.174;2023-04-08T13:44:08;11.25;;;8.27;;
48743;SDS011;34538;48.836;9.174;2023-04-08T13:46:35;11.55;;;7.38;;
48743;SDS011;34538;48.836;9.174;2023-04-08T13:49:03;9.98;;;7.13;;
48743;SDS011;34538;48.836;9.174;2023-04-08T13:51:30;11.25;;;7.30;;
48743;SDS011;34538;48.836;9.174;2023-04-08T13:53:57;10.18;;;6.82;;
48743;SDS011;34538;48.836;9.174;2023-04-08T13:56:24;9.13;;;6.65;;
48743;SDS011;34538;48.836;9.174;2023-04-08T13:58:50;15.05;;;9.43;;
48743;SDS011;34538;48.836;9.174;2023-04-08T14:01:17;12.30;;;8.90;;
48743;SDS011;34538;48.836;9.174;2023-04-08T14:03:44;11.50;;;7.75;;
48743;SDS011;34538;48.836;9.174;2023-04-08T14:06:12;11.82;;;8.38;;
48743;SDS011;34538;48.836;9.174;2023-04-08T14:08:39;13.63;;;8.07;;
48743;SDS011;34538;48.836;9.174;2023-04-08T14:11:06;12.00;;;8.23;;
48743;SDS011;34538;48.836;9.174;2023-04-08T14:13:33;11.00;;;7.20;;
48743;SDS011;34538;48.836;9.174;2023-04-08T14:16:00;12.90;;;7.65;;
48743;SDS011;34538;48.836;9.174;2023-04-08T14:18:27;12.93;;;8.00;;
48743;SDS011;34538;48.836;9.174;2023-04-08T14:20:53;11.52;;;7.47;;
48743;SDS011;34538;48.836;9.174;2023-04-08T14:23:22;10.57;;;7.85;;
48743;SDS011;34538;48.836;9.174;2023-04-08T14:25:49;11.07;;;7.70;;
48743;SDS011;34538;48.836;9.174;2023-04-08T14:28:16;13.98;;;10.52;;
48743;SDS011;34538;48.836;9.174;2023-04-08T14:30:43;10.35;;;7.20;;
48743;SDS011;34538;48.836;9.174;2023-04-08T14:33:10;10.63;;;7.32;;
48743;SDS011;34538;48.836;9.174;2023-04-08T14:35:37;11.65;;;7.50;;
48743;SDS011;34538;48.836;9.174;2023-04-08T14:38:04;11.85;;;7.70;;
48743;SDS011;34538;48.836;9.174;2023-04-08T14:40:32;14.38;;;9.60;;
48743;SDS011;34538;48.836;9.174;2023-04-08T14:42:59;12.82;;;7.43;;
48743;SDS011;34538;48.836;9.174;2023-04-08T14:45:26;11.55;;;7.13;;
48743;SDS011;34538;48.836;9.174;2023-04-08T14:47:53;10.90;;;7.10;;